createdAt,value
2022-11-26T00:00:57.485Z,0.60
2022-11-26T00:03:24.464Z,2.17
2022-11-26T00:05:54.904Z,1.35
2022-11-26T00:08:35.523Z,1.55
2022-11-26T00:11:03.079Z,0.30
2022-11-26T00:13:31.389Z,0.65
2022-11-26T00:15:58.300Z,0.77
2022-11-26T00:18:26.681Z,1.23
2022-11-26T00:21:00.892Z,1.48
2022-11-26T00:23:28.702Z,0.00
2022-11-26T00:25:59.618Z,4.32
2022-11-26T00:28:30.606Z,1.10
2022-11-26T00:31:00.472Z,0.25
2022-11-26T00:33:28.691Z,1.50
2022-11-26T00:36:03.971Z,0.00
2022-11-26T00:38:31.454Z,0.25
2022-11-26T00:40:58.741Z,0.50
2022-11-26T00:43:25.644Z,0.10
2022-11-26T00:45:52.327Z,1.02
2022-11-26T00:48:19.362Z,0.93
2022-11-26T00:50:51.082Z,0.60
2022-11-26T00:53:22.432Z,1.17
2022-11-26T00:55:50.430Z,0.20
2022-11-26T00:58:29.549Z,2.25
2022-11-26T01:00:59.345Z,0.88
2022-11-26T01:03:26.465Z,0.57
2022-11-26T01:05:54.966Z,0.25
2022-11-26T01:08:32.159Z,0.55
2022-11-26T01:11:01.250Z,0.73
2022-11-26T01:13:28.723Z,0.80
2022-11-26T01:15:56.828Z,2.10
2022-11-26T01:18:24.017Z,0.30
2022-11-26T01:20:51.174Z,0.03
2022-11-26T01:23:19.727Z,0.75
2022-11-26T01:25:47.364Z,0.20
2022-11-26T01:28:18.954Z,0.20
2022-11-26T01:30:46.271Z,0.73
2022-11-26T01:33:13.012Z,0.25
2022-11-26T01:35:40.027Z,0.80
2022-11-26T01:38:06.818Z,1.55
2022-11-26T01:41:02.605Z,0.00
2022-11-26T01:43:50.013Z,0.10
2022-11-26T01:46:22.462Z,0.50
2022-11-26T01:48:50.522Z,0.25
2022-11-26T01:51:27.081Z,1.35
2022-11-26T01:54:00.305Z,0.20
2022-11-26T01:56:36.277Z,0.70
2022-11-26T01:59:10.163Z,0.35
2022-11-26T02:01:37.101Z,2.03
2022-11-26T02:04:23.886Z,0.20
2022-11-26T02:06:52.114Z,0.70
2022-11-26T02:09:19.363Z,1.95
2022-11-26T02:11:46.233Z,0.20
2022-11-26T02:14:23.743Z,1.40
2022-11-26T02:16:50.610Z,1.17
2022-11-26T02:19:32.530Z,0.40
2022-11-26T02:22:15.157Z,0.90
2022-11-26T02:24:49.777Z,0.40
2022-11-26T02:27:38.035Z,0.70
2022-11-26T02:30:07.758Z,1.45
2022-11-26T02:32:59.024Z,1.08
2022-11-26T02:35:34.765Z,0.55
2022-11-26T02:38:06.401Z,0.00
2022-11-26T02:40:33.103Z,0.98
2022-11-26T02:42:59.908Z,0.52
2022-11-26T02:45:30.835Z,0.00
2022-11-26T02:48:01.621Z,0.90
2022-11-26T02:50:36.997Z,0.57
2022-11-26T02:53:05.745Z,0.00
2022-11-26T02:55:36.282Z,0.00
2022-11-26T02:58:03.477Z,1.38
2022-11-26T03:00:34.165Z,1.40
2022-11-26T03:03:17.138Z,0.00
2022-11-26T03:05:44.148Z,0.73
2022-11-26T03:08:11.156Z,0.30
2022-11-26T03:10:37.900Z,1.98
2022-11-26T03:13:04.816Z,0.45
2022-11-26T03:15:31.534Z,0.30
2022-11-26T03:17:58.540Z,1.20
2022-11-26T03:20:25.241Z,0.63
2022-11-26T03:22:52.246Z,0.00
2022-11-26T03:25:19.400Z,0.00
2022-11-26T03:27:46.299Z,0.55
2022-11-26T03:30:13.475Z,0.20
2022-11-26T03:32:40.731Z,1.55
2022-11-26T03:35:07.891Z,0.55
2022-11-26T03:37:35.168Z,0.82
2022-11-26T03:40:02.025Z,0.85
2022-11-26T03:42:29.191Z,0.63
2022-11-26T03:44:55.918Z,0.43
2022-11-26T03:47:22.796Z,0.15
2022-11-26T03:49:49.476Z,1.30
2022-11-26T03:52:16.433Z,0.90
2022-11-26T03:54:43.195Z,0.45
2022-11-26T03:57:10.139Z,0.95
2022-11-26T03:59:36.869Z,0.40
2022-11-26T04:02:04.865Z,0.00
2022-11-26T04:04:31.633Z,1.83
2022-11-26T04:06:58.301Z,0.88
2022-11-26T04:09:25.249Z,0.10
2022-11-26T04:11:52.073Z,0.77
2022-11-26T04:14:18.994Z,0.22
2022-11-26T04:16:45.962Z,0.47
2022-11-26T04:19:12.923Z,0.73
2022-11-26T04:21:39.758Z,0.32
2022-11-26T04:24:07.362Z,0.68
2022-11-26T04:26:34.232Z,1.00
2022-11-26T04:29:00.929Z,0.00
2022-11-26T04:31:27.884Z,0.75
2022-11-26T04:33:54.599Z,0.65
2022-11-26T04:36:21.454Z,0.40
2022-11-26T04:38:48.334Z,0.20
2022-11-26T04:41:15.096Z,0.00
2022-11-26T04:43:42.288Z,1.10
2022-11-26T04:46:09.081Z,0.20
2022-11-26T04:48:35.825Z,0.75
2022-11-26T04:51:02.614Z,0.08
2022-11-26T04:53:29.609Z,0.38
2022-11-26T04:55:56.297Z,0.10
2022-11-26T04:58:23.122Z,0.65
2022-11-26T05:00:51.421Z,0.00
2022-11-26T05:03:19.401Z,0.40
2022-11-26T05:05:47.091Z,2.08
2022-11-26T05:08:14.339Z,0.98
2022-11-26T05:10:41.423Z,0.08
2022-11-26T05:13:08.273Z,0.30
2022-11-26T05:15:35.035Z,1.85
2022-11-26T05:18:01.775Z,1.00
2022-11-26T05:20:28.557Z,0.13
2022-11-26T05:22:55.377Z,0.30
2022-11-26T05:25:22.277Z,0.65
2022-11-26T05:27:48.987Z,0.75
2022-11-26T05:30:16.023Z,1.10
2022-11-26T05:32:42.833Z,0.52
2022-11-26T05:35:09.907Z,1.10
2022-11-26T05:37:36.766Z,0.10
2022-11-26T05:40:04.807Z,1.25
2022-11-26T05:42:31.557Z,1.35
2022-11-26T05:44:58.520Z,0.05
2022-11-26T05:47:25.248Z,0.32
2022-11-26T05:49:52.265Z,0.43
2022-11-26T05:52:19.173Z,0.28
2022-11-26T05:54:45.917Z,0.85
2022-11-26T05:57:12.771Z,0.00
2022-11-26T05:59:39.573Z,0.43
2022-11-26T06:02:06.724Z,0.43
2022-11-26T06:04:33.602Z,1.33
2022-11-26T06:07:00.320Z,0.32
2022-11-26T06:09:27.195Z,0.10
2022-11-26T06:11:53.910Z,1.25
2022-11-26T06:14:20.719Z,0.85
2022-11-26T06:16:47.538Z,1.65
2022-11-26T06:19:14.396Z,3.50
2022-11-26T06:21:41.368Z,1.05
2022-11-26T06:24:08.228Z,1.40
2022-11-26T06:26:35.101Z,0.55
2022-11-26T06:29:01.854Z,0.80
2022-11-26T06:31:28.792Z,0.17
2022-11-26T06:33:56.593Z,0.88
2022-11-26T06:36:24.128Z,0.03
2022-11-26T06:38:50.762Z,0.52
2022-11-26T06:41:17.780Z,0.43
2022-11-26T06:43:44.472Z,1.45
2022-11-26T06:46:13.041Z,0.03
2022-11-26T06:48:40.697Z,0.00
2022-11-26T06:51:13.073Z,1.10
2022-11-26T06:53:40.302Z,1.13
2022-11-26T06:56:17.708Z,0.17
2022-11-26T06:58:46.768Z,0.60
2022-11-26T07:01:18.744Z,0.98
2022-11-26T07:03:45.810Z,0.10
2022-11-26T07:06:21.807Z,0.10
2022-11-26T07:08:49.649Z,0.10
2022-11-26T07:11:17.173Z,0.52
2022-11-26T07:13:44.214Z,0.60
2022-11-26T07:16:11.326Z,0.57
2022-11-26T07:18:38.297Z,0.30
2022-11-26T07:21:07.524Z,0.00
2022-11-26T07:23:34.578Z,0.30
2022-11-26T07:26:02.720Z,0.63
2022-11-26T07:28:30.270Z,0.10
2022-11-26T07:31:05.185Z,0.00
2022-11-26T07:33:32.634Z,1.20
2022-11-26T07:36:00.811Z,0.30
2022-11-26T07:38:29.010Z,1.55
2022-11-26T07:41:02.558Z,0.00
2022-11-26T07:43:29.433Z,0.30
2022-11-26T07:45:56.145Z,1.23
2022-11-26T07:48:22.994Z,0.03
2022-11-26T07:50:49.753Z,2.92
2022-11-26T07:53:16.563Z,0.28
2022-11-26T07:55:43.281Z,0.57
2022-11-26T07:58:10.164Z,0.52
2022-11-26T08:00:36.844Z,0.30
2022-11-26T08:03:03.816Z,1.92
2022-11-26T08:05:30.540Z,0.20
2022-11-26T08:07:57.595Z,0.68
2022-11-26T08:10:24.567Z,0.15
2022-11-26T08:12:52.139Z,0.00
2022-11-26T08:15:18.855Z,0.10
2022-11-26T08:17:45.677Z,1.23
2022-11-26T08:20:12.676Z,0.52
2022-11-26T08:22:39.692Z,0.28
2022-11-26T08:25:07.316Z,0.00
2022-11-26T08:27:34.310Z,0.20
2022-11-26T08:30:01.027Z,0.25
2022-11-26T08:32:27.838Z,0.80
2022-11-26T08:34:54.495Z,0.20
2022-11-26T08:37:21.410Z,0.08
2022-11-26T08:39:48.124Z,0.25
2022-11-26T08:42:15.125Z,0.00
2022-11-26T08:44:42.511Z,0.85
2022-11-26T08:47:09.696Z,1.30
2022-11-26T08:49:36.646Z,0.30
2022-11-26T08:52:03.433Z,0.40
2022-11-26T08:54:30.374Z,0.30
2022-11-26T08:56:57.415Z,0.13
2022-11-26T08:59:25.318Z,0.20
2022-11-26T09:01:52.320Z,0.00
2022-11-26T09:04:19.044Z,0.80
2022-11-26T09:06:45.815Z,0.05
2022-11-26T09:09:12.747Z,0.15
2022-11-26T09:11:57.732Z,0.57
2022-11-26T09:14:27.302Z,0.63
2022-11-26T09:16:56.246Z,0.00
2022-11-26T09:19:24.457Z,1.02
2022-11-26T09:21:51.427Z,0.45
2022-11-26T09:24:18.266Z,0.63
2022-11-26T09:26:45.927Z,0.30
2022-11-26T09:29:14.384Z,0.83
2022-11-26T09:32:00.731Z,0.10
2022-11-26T09:34:28.813Z,1.07
2022-11-26T09:36:56.573Z,0.97
2022-11-26T09:39:23.681Z,1.50
2022-11-26T09:41:57.677Z,1.13
2022-11-26T09:45:01.381Z,0.10
2022-11-26T09:47:41.379Z,0.50
2022-11-26T09:50:11.053Z,0.33
2022-11-26T09:53:10.366Z,0.10
2022-11-26T09:55:40.408Z,0.50
2022-11-26T09:58:26.638Z,1.07
2022-11-26T10:00:57.900Z,0.83
2022-11-26T10:03:31.898Z,1.17
2022-11-26T10:06:36.380Z,0.30
2022-11-26T10:09:22.221Z,2.57
2022-11-26T10:12:26.714Z,2.43
2022-11-26T10:15:21.068Z,0.83
2022-11-26T10:18:14.397Z,0.27
2022-11-26T10:20:43.990Z,2.73
2022-11-26T10:23:13.489Z,0.87
2022-11-26T10:25:46.501Z,0.50
2022-11-26T10:28:52.349Z,0.33
2022-11-26T10:31:22.977Z,0.70
2022-11-26T10:33:58.882Z,1.50
2022-11-26T10:36:38.791Z,2.27
2022-11-26T10:39:07.423Z,2.63
2022-11-26T10:41:36.916Z,2.27
2022-11-26T10:44:37.159Z,0.73
2022-11-26T10:47:27.463Z,1.20
2022-11-26T10:50:45.390Z,0.30
2022-11-26T10:53:06.081Z,0.20
2022-11-26T10:55:39.191Z,0.73
2022-11-26T10:58:15.022Z,1.00
2022-11-26T11:00:51.050Z,0.30
2022-11-26T11:03:38.253Z,0.77
2022-11-26T11:06:20.161Z,1.27
2022-11-26T11:08:48.646Z,2.03
2022-11-26T11:11:29.831Z,0.70
2022-11-26T11:13:57.463Z,0.40
2022-11-26T11:16:31.112Z,1.07
2022-11-26T11:19:05.475Z,1.03
2022-11-26T11:21:39.162Z,1.10
2022-11-26T11:24:14.849Z,1.03
2022-11-26T11:26:44.395Z,1.50
2022-11-26T11:29:29.462Z,0.70
2022-11-26T11:31:57.739Z,0.97
2022-11-26T11:34:32.888Z,1.63
2022-11-26T11:37:05.737Z,3.03
2022-11-26T11:39:35.376Z,0.77
2022-11-26T11:42:06.602Z,1.07
2022-11-26T11:44:59.571Z,1.33
2022-11-26T11:47:43.522Z,0.80
2022-11-26T11:50:25.607Z,0.97
2022-11-26T11:53:07.636Z,0.20
2022-11-26T11:55:49.414Z,0.77
2022-11-26T11:58:18.946Z,2.40
2022-11-26T12:00:48.489Z,1.37
2022-11-26T12:03:43.088Z,0.87
2022-11-26T12:06:17.411Z,1.33
2022-11-26T12:09:02.813Z,0.43
2022-11-26T12:11:55.358Z,0.77
2022-11-26T12:14:43.196Z,1.73
2022-11-26T12:17:40.386Z,0.90
2022-11-26T12:20:27.248Z,1.50
2022-11-26T12:23:21.248Z,1.07
2022-11-26T12:25:55.494Z,1.37
2022-11-26T12:28:33.746Z,0.43
2022-11-26T12:31:06.947Z,0.53
2022-11-26T12:33:43.660Z,0.73
2022-11-26T12:36:13.844Z,0.77
2022-11-26T12:38:47.439Z,2.87
2022-11-26T12:41:44.008Z,4.60
2022-11-26T12:44:17.910Z,1.03
2022-11-26T12:47:04.669Z,0.90
2022-11-26T12:49:47.039Z,0.93
2022-11-26T12:52:14.085Z,0.43
2022-11-26T12:54:56.005Z,0.73
2022-11-26T12:57:30.958Z,1.10
2022-11-26T13:00:18.911Z,0.40
2022-11-26T13:02:50.944Z,0.73
2022-11-26T13:05:30.983Z,0.63
2022-11-26T13:08:12.705Z,0.67
2022-11-26T13:10:57.692Z,0.20
2022-11-26T13:13:39.021Z,0.77
2022-11-26T13:16:08.643Z,0.97
2022-11-26T13:18:44.286Z,0.87
2022-11-26T13:21:17.278Z,1.23
2022-11-26T13:24:18.844Z,1.47
2022-11-26T13:27:09.278Z,0.90
2022-11-26T13:29:57.998Z,0.80
2022-11-26T13:32:33.627Z,0.83
2022-11-26T13:35:22.898Z,0.57
2022-11-26T13:38:22.418Z,2.00
2022-11-26T13:41:10.836Z,1.30
2022-11-26T13:44:07.111Z,0.53
2022-11-26T13:46:42.129Z,0.60
2022-11-26T13:49:18.179Z,0.50
2022-11-26T13:51:53.899Z,0.20
2022-11-26T13:54:42.979Z,1.00
2022-11-26T13:57:21.302Z,1.67
2022-11-26T13:59:51.467Z,1.10
2022-11-26T14:02:33.813Z,0.60
2022-11-26T14:05:16.179Z,0.70
2022-11-26T14:07:45.308Z,0.20
2022-11-26T14:10:35.232Z,0.27
2022-11-26T14:13:02.078Z,2.53
2022-11-26T14:16:00.584Z,0.97
2022-11-26T14:18:48.758Z,0.10
2022-11-26T14:21:17.136Z,0.70
2022-11-26T14:23:46.527Z,0.30
2022-11-26T14:26:23.187Z,0.70
2022-11-26T14:28:52.470Z,0.60
2022-11-26T14:31:26.181Z,0.30
2022-11-26T14:33:57.559Z,0.57
2022-11-26T14:36:29.806Z,0.53
2022-11-26T14:39:07.179Z,0.20
2022-11-26T14:42:05.330Z,0.50
2022-11-26T14:44:34.469Z,1.70
2022-11-26T14:47:11.817Z,0.93
2022-11-26T14:49:48.752Z,0.90
2022-11-26T14:52:21.071Z,0.47
2022-11-26T14:54:51.778Z,1.67
2022-11-26T14:57:47.538Z,1.47
2022-11-26T15:00:14.449Z,1.03
2022-11-26T15:02:45.608Z,1.03
2022-11-26T15:05:22.056Z,0.73
2022-11-26T15:08:04.399Z,1.57
2022-11-26T15:10:35.834Z,1.37
2022-11-26T15:13:32.982Z,1.10
2022-11-26T15:16:02.711Z,1.57
2022-11-26T15:18:32.522Z,0.97
2022-11-26T15:21:01.244Z,1.87
2022-11-26T15:23:32.733Z,1.00
2022-11-26T15:26:00.663Z,0.67
2022-11-26T15:28:28.203Z,0.97
2022-11-26T15:30:55.017Z,1.70
2022-11-26T15:33:22.622Z,1.00
2022-11-26T15:35:56.864Z,0.60
2022-11-26T15:38:26.121Z,0.20
2022-11-26T15:41:02.024Z,0.73
2022-11-26T15:43:44.702Z,1.20
2022-11-26T15:46:35.667Z,1.00
2022-11-26T15:49:21.975Z,2.20
2022-11-26T15:51:57.027Z,1.80
2022-11-26T15:54:49.527Z,1.90
2022-11-26T15:57:35.310Z,1.20
2022-11-26T16:00:22.026Z,1.00
2022-11-26T16:02:49.756Z,0.63
2022-11-26T16:05:38.468Z,0.80
2022-11-26T16:08:23.742Z,0.80
2022-11-26T16:10:57.975Z,3.47
2022-11-26T16:13:35.368Z,0.80
2022-11-26T16:16:02.248Z,2.07
2022-11-26T16:18:43.053Z,1.50
2022-11-26T16:21:24.198Z,1.43
2022-11-26T16:23:54.224Z,0.30
2022-11-26T16:26:22.175Z,1.53
2022-11-26T16:28:48.887Z,1.20
2022-11-26T16:31:17.103Z,1.83
2022-11-26T16:33:45.022Z,0.50
2022-11-26T16:36:28.286Z,2.87
2022-11-26T16:38:55.157Z,1.93
2022-11-26T16:41:22.870Z,2.00
2022-11-26T16:43:50.355Z,0.73
2022-11-26T16:46:27.626Z,1.67
2022-11-26T16:48:55.823Z,1.27
2022-11-26T16:51:22.950Z,1.95
2022-11-26T16:53:49.810Z,0.75
2022-11-26T16:56:24.093Z,0.60
2022-11-26T16:58:51.611Z,1.03
2022-11-26T17:01:19.007Z,2.57
2022-11-26T17:03:45.863Z,1.15
2022-11-26T17:06:17.922Z,2.10
2022-11-26T17:08:49.671Z,1.73
2022-11-26T17:11:17.329Z,2.60
2022-11-26T17:13:43.996Z,1.10
2022-11-26T17:16:20.449Z,1.37
2022-11-26T17:18:48.046Z,1.38
2022-11-26T17:21:15.196Z,1.13
2022-11-26T17:23:42.561Z,0.77
2022-11-26T17:26:17.939Z,2.25
2022-11-26T17:28:46.453Z,0.35
2022-11-26T17:31:13.481Z,2.63
2022-11-26T17:33:40.273Z,1.48
2022-11-26T17:36:16.354Z,1.40
2022-11-26T17:38:44.064Z,1.20
2022-11-26T17:41:11.285Z,1.35
2022-11-26T17:43:39.139Z,3.58
2022-11-26T17:46:12.837Z,1.52
2022-11-26T17:48:39.753Z,2.72
2022-11-26T17:51:06.864Z,2.42
2022-11-26T17:53:33.668Z,2.00
2022-11-26T17:56:00.443Z,1.80
2022-11-26T17:58:27.478Z,0.65
2022-11-26T18:00:54.138Z,1.60
2022-11-26T18:03:21.059Z,0.98
2022-11-26T18:05:47.836Z,1.20
2022-11-26T18:08:14.715Z,2.30
2022-11-26T18:10:41.567Z,1.00
2022-11-26T18:13:09.496Z,0.45
2022-11-26T18:15:36.306Z,2.97
2022-11-26T18:18:04.472Z,0.55
2022-11-26T18:20:31.262Z,1.40
2022-11-26T18:23:00.944Z,1.85
2022-11-26T18:25:28.595Z,1.35
2022-11-26T18:27:55.688Z,1.80
2022-11-26T18:30:22.730Z,0.63
2022-11-26T18:32:50.707Z,0.35
2022-11-26T18:35:18.703Z,0.95
2022-11-26T18:37:45.477Z,1.90
2022-11-26T18:40:15.378Z,0.85
2022-11-26T18:42:42.393Z,2.85
2022-11-26T18:45:13.314Z,0.77
2022-11-26T18:47:41.295Z,1.42
2022-11-26T18:50:08.592Z,0.70
2022-11-26T18:52:35.709Z,0.43
2022-11-26T18:55:07.516Z,1.55
2022-11-26T18:57:34.467Z,0.65
2022-11-26T19:00:01.265Z,1.55
2022-11-26T19:02:28.279Z,1.08
2022-11-26T19:04:55.055Z,1.38
2022-11-26T19:07:22.262Z,0.30
2022-11-26T19:09:49.057Z,2.30
2022-11-26T19:12:15.858Z,0.68
2022-11-26T19:14:44.108Z,1.17
2022-11-26T19:17:11.110Z,0.20
2022-11-26T19:19:38.480Z,2.22
2022-11-26T19:22:05.474Z,0.17
2022-11-26T19:24:32.262Z,2.38
2022-11-26T19:26:59.237Z,2.60
2022-11-26T19:29:26.197Z,0.65
2022-11-26T19:31:53.571Z,1.27
2022-11-26T19:34:20.622Z,0.52
2022-11-26T19:36:49.038Z,0.90
2022-11-26T19:39:16.924Z,1.23
2022-11-26T19:41:44.375Z,0.75
2022-11-26T19:44:11.245Z,0.65
2022-11-26T19:46:41.248Z,0.60
2022-11-26T19:49:12.083Z,0.50
2022-11-26T19:51:39.559Z,0.52
2022-11-26T19:54:06.735Z,0.95
2022-11-26T19:56:34.125Z,0.55
2022-11-26T19:59:02.382Z,0.55
2022-11-26T20:01:31.682Z,0.63
2022-11-26T20:04:00.920Z,1.35
2022-11-26T20:06:29.702Z,0.30
2022-11-26T20:08:59.306Z,1.17
2022-11-26T20:11:27.915Z,0.15
2022-11-26T20:13:54.664Z,1.05
2022-11-26T20:16:30.203Z,1.10
2022-11-26T20:18:58.236Z,0.55
2022-11-26T20:21:27.785Z,0.77
2022-11-26T20:23:57.983Z,2.97
2022-11-26T20:26:30.487Z,4.15
2022-11-26T20:29:01.401Z,3.03
2022-11-26T20:31:28.526Z,2.63
2022-11-26T20:33:55.404Z,3.50
2022-11-26T20:36:23.738Z,1.73
2022-11-26T20:38:55.580Z,3.92
2022-11-26T20:41:23.695Z,4.70
2022-11-26T20:43:56.622Z,1.60
2022-11-26T20:46:25.794Z,4.95
2022-11-26T20:48:53.178Z,4.50
2022-11-26T20:51:22.027Z,5.18
2022-11-26T20:53:50.580Z,3.33
2022-11-26T20:56:19.867Z,1.08
2022-11-26T20:58:47.264Z,2.38
2022-11-26T21:01:17.218Z,3.47
2022-11-26T21:03:44.920Z,2.90
2022-11-26T21:06:16.264Z,3.45
2022-11-26T21:08:43.828Z,4.30
2022-11-26T21:11:11.672Z,4.57
2022-11-26T21:13:39.276Z,2.17
2022-11-26T21:16:10.057Z,5.07
2022-11-26T21:18:37.047Z,3.00
2022-11-26T21:21:08.991Z,2.45
2022-11-26T21:23:38.429Z,2.97
2022-11-26T21:26:07.588Z,3.38
2022-11-26T21:28:34.758Z,4.22
2022-11-26T21:31:10.407Z,3.35
2022-11-26T21:33:37.382Z,2.53
2022-11-26T21:36:09.162Z,5.15
2022-11-26T21:38:36.822Z,4.47
2022-11-26T21:41:13.068Z,2.90
2022-11-26T21:43:40.774Z,3.63
2022-11-26T21:46:10.593Z,5.22
2022-11-26T21:48:37.534Z,3.95
2022-11-26T21:51:09.984Z,6.20
2022-11-26T21:53:36.794Z,4.13
2022-11-26T21:56:08.677Z,6.30
2022-11-26T21:58:37.076Z,4.57
2022-11-26T22:01:14.205Z,6.47
2022-11-26T22:03:44.275Z,6.32
2022-11-26T22:06:12.166Z,3.88
2022-11-26T22:08:40.642Z,6.50
2022-11-26T22:11:12.491Z,5.18
2022-11-26T22:13:40.439Z,5.97
2022-11-26T22:16:08.763Z,5.85
2022-11-26T22:18:37.961Z,7.40
2022-11-26T22:21:07.560Z,3.63
2022-11-26T22:23:34.432Z,4.82
2022-11-26T22:26:01.185Z,5.13
2022-11-26T22:28:30.434Z,3.30
2022-11-26T22:30:57.438Z,8.10
2022-11-26T22:33:25.551Z,3.15
2022-11-26T22:35:52.328Z,6.53
2022-11-26T22:38:19.186Z,3.97
2022-11-26T22:40:45.922Z,3.60
2022-11-26T22:43:12.868Z,3.72
2022-11-26T22:45:39.490Z,5.55
2022-11-26T22:48:06.490Z,3.45
2022-11-26T22:50:33.249Z,3.97
2022-11-26T22:53:00.097Z,4.13
2022-11-26T22:55:26.925Z,2.78
2022-11-26T22:57:53.803Z,4.40
2022-11-26T23:00:56.545Z,2.90
2022-11-26T23:03:25.482Z,4.82
2022-11-26T23:05:53.146Z,5.82
2022-11-26T23:08:20.804Z,2.80
2022-11-26T23:10:51.476Z,1.95
2022-11-26T23:13:18.265Z,5.65
2022-11-26T23:15:46.975Z,7.35
2022-11-26T23:18:15.838Z,6.93
2022-11-26T23:20:43.938Z,3.83
2022-11-26T23:23:10.717Z,8.38
2022-11-26T23:25:39.402Z,4.53
2022-11-26T23:28:06.797Z,8.80
2022-11-26T23:30:34.770Z,7.13
2022-11-26T23:33:01.675Z,5.13
2022-11-26T23:35:28.631Z,4.50
2022-11-26T23:37:55.376Z,2.55
2022-11-26T23:40:22.258Z,5.55
2022-11-26T23:42:49.030Z,7.65
2022-11-26T23:45:15.733Z,6.53
2022-11-26T23:47:42.737Z,3.92
2022-11-26T23:50:09.862Z,4.25
2022-11-26T23:52:36.744Z,6.18
2022-11-26T23:55:03.869Z,6.47
2022-11-26T23:57:30.743Z,3.60
2022-11-26T23:59:57.539Z,5.28
